Baghdad, Iraq

1:15 PM AST on October 25, 2014 (GMT +0300)
BAGHDAD INTL | Change Station
CLOSE
Current Station
Airport
Location: BAGHDAD INTL,
Elevation: 115 ft
Nearby Weather Stations

Elev 115 ft 33.26 °N, 44.23 °E | Updated 15 minutes ago

Clear
Clear
84 °F
Feels Like 84 °F
N
12
Wind Variable Wind from NNW

Today
High -- | Low -- °F
--% Chance of Precip.
Yesterday
High -- | Low -- °F
Precip. -- in
6:15 AM 5:18 PM
New Moon, 2% visible
Pressure 29.95 in
Visibility -9999.0 miles
Clouds
Dew Point 46 °F
Humidity 27%
Rainfall 0.00 in
Snow Depth Not available.
UV Not available.
Pollen Not available.
Air Quality Not available.
Flu Activity Not available.
METAR ORBI 251000Z 33010KT 290V360 CAVOK 29/08 Q1014 NOSIG

More Conditions Fewer Conditions

Pressure 29.95 in
Visibility -9999.0 miles
Clouds
Dew Point 46 °F
Humidity 27%
Rainfall 0.00 in
Snow Depth Not available.
UV Not available.
Pollen Not available.
Air Quality Not available.
Flu Activity Not available.
METAR ORBI 251000Z 33010KT 290V360 CAVOK 29/08 Q1014 NOSIG

More Conditions Fewer Conditions

10-Day Weather Forecast

Almanac

Astronomy

Oct. 25, 2014 Rise Set
Actual Time 6:15 AM AST 5:18 PM AST
Civil Twilight 5:49 AM AST 5:43 PM AST
Nautical Twilight 5:20 AM AST 6:12 PM AST
Astronomical Twilight 4:52 AM AST 6:41 PM AST
Moon 7:28 AM AST 6:28 PM AST
Length of Visible Light 11h 54m
Length of Day
11h 03m
Tomorrow will be 1m 53s shorter.
New Moon, 2% of the Moon is Illuminated
Today
New Moon
Oct 30
First Quarter
Nov 6
Full
Nov 14
Last Quarter
Nov 22
New

Yesterday's Extremes

Country Highs Country Lows

Community

WunderPhotos

Upload Photos

1,764,796 photos uploaded!

Nearby

Snow Depth

Not available.

Earthquake Activity

City Distance Mag. Time & Date
No recent earthquake activity has been reported nearby.
Minimum magnitude displayed is 2.5.

Coastal Water Temperatures

Place Temperature
No Stations Reporting

Nearby Weather Stations